sensor_id;sensor_type;location;lat;lon;timestamp;P1;durP1;ratioP1;P2;durP2;ratioP2
27796;SDS011;15177;50.844;4.412;2024-01-15T00:00:58;53.50;;;22.03;;
27796;SDS011;15177;50.844;4.412;2024-01-15T00:03:24;51.97;;;21.13;;
27796;SDS011;15177;50.844;4.412;2024-01-15T00:05:49;58.80;;;23.17;;
27796;SDS011;15177;50.844;4.412;2024-01-15T00:08:15;53.30;;;21.80;;
27796;SDS011;15177;50.844;4.412;2024-01-15T00:10:43;50.63;;;21.23;;
27796;SDS011;15177;50.844;4.412;2024-01-15T00:13:08;50.73;;;20.43;;
27796;SDS011;15177;50.844;4.412;2024-01-15T00:15:37;46.30;;;19.70;;
27796;SDS011;15177;50.844;4.412;2024-01-15T00:18:06;53.07;;;19.30;;
27796;SDS011;15177;50.844;4.412;2024-01-15T00:20:34;47.57;;;19.90;;
27796;SDS011;15177;50.844;4.412;2024-01-15T00:22:59;41.37;;;18.03;;
27796;SDS011;15177;50.844;4.412;2024-01-15T00:25:25;45.60;;;20.03;;
27796;SDS011;15177;50.844;4.412;2024-01-15T00:27:53;42.10;;;18.30;;
27796;SDS011;15177;50.844;4.412;2024-01-15T00:30:21;42.53;;;18.27;;
27796;SDS011;15177;50.844;4.412;2024-01-15T00:32:46;42.30;;;17.17;;
27796;SDS011;15177;50.844;4.412;2024-01-15T00:35:12;45.90;;;17.90;;
27796;SDS011;15177;50.844;4.412;2024-01-15T00:37:38;43.87;;;18.33;;
27796;SDS011;15177;50.844;4.412;2024-01-15T00:40:04;41.17;;;16.73;;
27796;SDS011;15177;50.844;4.412;2024-01-15T00:42:32;37.97;;;16.40;;
27796;SDS011;15177;50.844;4.412;2024-01-15T00:45:01;41.53;;;17.07;;
27796;SDS011;15177;50.844;4.412;2024-01-15T00:47:26;37.00;;;15.13;;
27796;SDS011;15177;50.844;4.412;2024-01-15T00:49:54;35.40;;;15.67;;
27796;SDS011;15177;50.844;4.412;2024-01-15T00:52:20;33.00;;;16.17;;
27796;SDS011;15177;50.844;4.412;2024-01-15T00:54:46;35.50;;;15.37;;
27796;SDS011;15177;50.844;4.412;2024-01-15T00:57:11;29.00;;;14.00;;
27796;SDS011;15177;50.844;4.412;2024-01-15T00:59:37;31.50;;;13.13;;
27796;SDS011;15177;50.844;4.412;2024-01-15T01:02:05;23.97;;;12.30;;
27796;SDS011;15177;50.844;4.412;2024-01-15T01:04:31;28.50;;;12.47;;
27796;SDS011;15177;50.844;4.412;2024-01-15T01:06:57;26.57;;;12.57;;
27796;SDS011;15177;50.844;4.412;2024-01-15T01:09:22;25.97;;;12.30;;
27796;SDS011;15177;50.844;4.412;2024-01-15T01:11:48;29.20;;;12.67;;
27796;SDS011;15177;50.844;4.412;2024-01-15T01:14:14;25.60;;;12.23;;
27796;SDS011;15177;50.844;4.412;2024-01-15T01:16:39;25.87;;;11.43;;
27796;SDS011;15177;50.844;4.412;2024-01-15T01:19:05;24.10;;;11.00;;
27796;SDS011;15177;50.844;4.412;2024-01-15T01:21:33;20.83;;;11.17;;
27796;SDS011;15177;50.844;4.412;2024-01-15T01:23:59;24.90;;;10.90;;
27796;SDS011;15177;50.844;4.412;2024-01-15T01:26:25;18.93;;;9.20;;
27796;SDS011;15177;50.844;4.412;2024-01-15T01:28:52;19.63;;;10.10;;
27796;SDS011;15177;50.844;4.412;2024-01-15T01:31:20;21.33;;;10.57;;
27796;SDS011;15177;50.844;4.412;2024-01-15T01:33:48;19.03;;;8.37;;
27796;SDS011;15177;50.844;4.412;2024-01-15T01:36:14;24.53;;;10.03;;
27796;SDS011;15177;50.844;4.412;2024-01-15T01:38:42;24.67;;;9.20;;
27796;SDS011;15177;50.844;4.412;2024-01-15T01:41:08;20.20;;;9.50;;
27796;SDS011;15177;50.844;4.412;2024-01-15T01:43:33;21.10;;;9.37;;
27796;SDS011;15177;50.844;4.412;2024-01-15T01:46:01;19.30;;;10.23;;
27796;SDS011;15177;50.844;4.412;2024-01-15T01:48:28;16.70;;;8.43;;
27796;SDS011;15177;50.844;4.412;2024-01-15T01:50:59;17.87;;;8.67;;
27796;SDS011;15177;50.844;4.412;2024-01-15T01:53:29;20.83;;;9.53;;
27796;SDS011;15177;50.844;4.412;2024-01-15T01:55:57;19.10;;;9.43;;
27796;SDS011;15177;50.844;4.412;2024-01-15T01:58:26;14.23;;;7.97;;
27796;SDS011;15177;50.844;4.412;2024-01-15T02:00:53;16.07;;;7.83;;
27796;SDS011;15177;50.844;4.412;2024-01-15T02:03:19;14.00;;;7.73;;
27796;SDS011;15177;50.844;4.412;2024-01-15T02:05:48;20.47;;;8.70;;
27796;SDS011;15177;50.844;4.412;2024-01-15T02:08:17;18.70;;;8.17;;
27796;SDS011;15177;50.844;4.412;2024-01-15T02:10:42;14.70;;;7.43;;
27796;SDS011;15177;50.844;4.412;2024-01-15T02:13:08;17.80;;;7.73;;
27796;SDS011;15177;50.844;4.412;2024-01-15T02:15:36;15.80;;;7.87;;
27796;SDS011;15177;50.844;4.412;2024-01-15T02:18:05;11.97;;;7.73;;
27796;SDS011;15177;50.844;4.412;2024-01-15T02:20:35;14.87;;;7.10;;
27796;SDS011;15177;50.844;4.412;2024-01-15T02:23:06;14.50;;;7.93;;
27796;SDS011;15177;50.844;4.412;2024-01-15T02:25:39;14.00;;;6.23;;
27796;SDS011;15177;50.844;4.412;2024-01-15T02:28:10;13.83;;;7.13;;
27796;SDS011;15177;50.844;4.412;2024-01-15T02:30:37;14.60;;;6.53;;
27796;SDS011;15177;50.844;4.412;2024-01-15T02:33:07;11.17;;;6.67;;
27796;SDS011;15177;50.844;4.412;2024-01-15T02:35:33;16.40;;;7.07;;
27796;SDS011;15177;50.844;4.412;2024-01-15T02:38:02;19.87;;;6.33;;
27796;SDS011;15177;50.844;4.412;2024-01-15T02:40:28;13.37;;;6.93;;
27796;SDS011;15177;50.844;4.412;2024-01-15T02:42:56;16.23;;;7.27;;
27796;SDS011;15177;50.844;4.412;2024-01-15T02:45:22;12.70;;;6.80;;
27796;SDS011;15177;50.844;4.412;2024-01-15T02:47:48;14.47;;;6.97;;
27796;SDS011;15177;50.844;4.412;2024-01-15T02:50:14;11.63;;;6.27;;
27796;SDS011;15177;50.844;4.412;2024-01-15T02:52:43;19.67;;;7.53;;
27796;SDS011;15177;50.844;4.412;2024-01-15T02:55:11;15.70;;;7.93;;
27796;SDS011;15177;50.844;4.412;2024-01-15T02:57:39;18.17;;;9.27;;
27796;SDS011;15177;50.844;4.412;2024-01-15T03:00:07;21.57;;;10.83;;
27796;SDS011;15177;50.844;4.412;2024-01-15T03:02:36;29.10;;;12.33;;
27796;SDS011;15177;50.844;4.412;2024-01-15T03:05:06;26.40;;;11.90;;
27796;SDS011;15177;50.844;4.412;2024-01-15T03:07:32;19.80;;;10.70;;
27796;SDS011;15177;50.844;4.412;2024-01-15T03:10:01;26.87;;;12.43;;
27796;SDS011;15177;50.844;4.412;2024-01-15T03:12:29;32.87;;;13.57;;
27796;SDS011;15177;50.844;4.412;2024-01-15T03:14:57;33.73;;;13.03;;
27796;SDS011;15177;50.844;4.412;2024-01-15T03:17:23;29.27;;;14.30;;
27796;SDS011;15177;50.844;4.412;2024-01-15T03:19:51;27.50;;;13.97;;
27796;SDS011;15177;50.844;4.412;2024-01-15T03:22:17;35.23;;;13.80;;
27796;SDS011;15177;50.844;4.412;2024-01-15T03:24:43;32.37;;;15.00;;
27796;SDS011;15177;50.844;4.412;2024-01-15T03:27:13;34.27;;;14.17;;
27796;SDS011;15177;50.844;4.412;2024-01-15T03:29:41;28.23;;;14.07;;
27796;SDS011;15177;50.844;4.412;2024-01-15T03:32:07;25.33;;;12.67;;
27796;SDS011;15177;50.844;4.412;2024-01-15T03:34:33;29.03;;;13.40;;
27796;SDS011;15177;50.844;4.412;2024-01-15T03:36:58;25.70;;;12.67;;
27796;SDS011;15177;50.844;4.412;2024-01-15T03:39:24;28.47;;;14.07;;
27796;SDS011;15177;50.844;4.412;2024-01-15T03:41:52;30.70;;;14.73;;
27796;SDS011;15177;50.844;4.412;2024-01-15T03:44:20;30.10;;;14.33;;
27796;SDS011;15177;50.844;4.412;2024-01-15T03:46:46;31.33;;;13.77;;
27796;SDS011;15177;50.844;4.412;2024-01-15T03:49:11;34.70;;;13.83;;
27796;SDS011;15177;50.844;4.412;2024-01-15T03:51:40;32.80;;;14.43;;
27796;SDS011;15177;50.844;4.412;2024-01-15T03:54:05;30.63;;;14.93;;
27796;SDS011;15177;50.844;4.412;2024-01-15T03:56:36;29.70;;;15.37;;
27796;SDS011;15177;50.844;4.412;2024-01-15T03:59:03;39.73;;;17.27;;
27796;SDS011;15177;50.844;4.412;2024-01-15T04:01:29;37.87;;;16.83;;
27796;SDS011;15177;50.844;4.412;2024-01-15T04:03:55;39.33;;;17.77;;
27796;SDS011;15177;50.844;4.412;2024-01-15T04:06:23;41.53;;;18.67;;
27796;SDS011;15177;50.844;4.412;2024-01-15T04:08:49;38.90;;;17.70;;
27796;SDS011;15177;50.844;4.412;2024-01-15T04:11:17;43.70;;;18.93;;
27796;SDS011;15177;50.844;4.412;2024-01-15T04:13:44;40.23;;;18.77;;
27796;SDS011;15177;50.844;4.412;2024-01-15T04:16:10;46.37;;;19.67;;
27796;SDS011;15177;50.844;4.412;2024-01-15T04:18:36;48.00;;;18.93;;
27796;SDS011;15177;50.844;4.412;2024-01-15T04:21:03;37.17;;;19.47;;
27796;SDS011;15177;50.844;4.412;2024-01-15T04:23:34;42.80;;;19.47;;
27796;SDS011;15177;50.844;4.412;2024-01-15T04:26:02;45.40;;;20.00;;
27796;SDS011;15177;50.844;4.412;2024-01-15T04:28:30;38.53;;;17.87;;
27796;SDS011;15177;50.844;4.412;2024-01-15T04:30:56;43.67;;;18.80;;
27796;SDS011;15177;50.844;4.412;2024-01-15T04:33:24;40.80;;;17.67;;
27796;SDS011;15177;50.844;4.412;2024-01-15T04:35:50;43.00;;;19.00;;
27796;SDS011;15177;50.844;4.412;2024-01-15T04:38:17;36.77;;;16.80;;
27796;SDS011;15177;50.844;4.412;2024-01-15T04:40:45;35.33;;;17.30;;
27796;SDS011;15177;50.844;4.412;2024-01-15T04:43:15;40.67;;;18.57;;
27796;SDS011;15177;50.844;4.412;2024-01-15T04:45:41;42.27;;;16.90;;
27796;SDS011;15177;50.844;4.412;2024-01-15T04:48:09;39.57;;;16.43;;
27796;SDS011;15177;50.844;4.412;2024-01-15T04:50:34;30.70;;;15.67;;
27796;SDS011;15177;50.844;4.412;2024-01-15T04:53:00;30.93;;;14.63;;
27796;SDS011;15177;50.844;4.412;2024-01-15T04:55:30;29.63;;;14.93;;
27796;SDS011;15177;50.844;4.412;2024-01-15T04:57:58;26.90;;;14.33;;
27796;SDS011;15177;50.844;4.412;2024-01-15T05:00:24;34.83;;;14.83;;
27796;SDS011;15177;50.844;4.412;2024-01-15T05:02:50;25.37;;;13.87;;
27796;SDS011;15177;50.844;4.412;2024-01-15T05:05:16;29.37;;;14.23;;
27796;SDS011;15177;50.844;4.412;2024-01-15T05:07:41;27.30;;;13.10;;
27796;SDS011;15177;50.844;4.412;2024-01-15T05:10:09;24.73;;;12.80;;
27796;SDS011;15177;50.844;4.412;2024-01-15T05:12:35;25.80;;;12.20;;
27796;SDS011;15177;50.844;4.412;2024-01-15T05:15:00;22.23;;;11.37;;
27796;SDS011;15177;50.844;4.412;2024-01-15T05:17:26;21.77;;;9.97;;
27796;SDS011;15177;50.844;4.412;2024-01-15T05:19:54;21.03;;;8.73;;
27796;SDS011;15177;50.844;4.412;2024-01-15T05:22:25;21.70;;;8.63;;
27796;SDS011;15177;50.844;4.412;2024-01-15T05:24:52;18.17;;;6.57;;
27796;SDS011;15177;50.844;4.412;2024-01-15T05:27:20;11.87;;;6.13;;
27796;SDS011;15177;50.844;4.412;2024-01-15T05:29:48;11.97;;;5.50;;
27796;SDS011;15177;50.844;4.412;2024-01-15T05:32:16;11.13;;;5.50;;
27796;SDS011;15177;50.844;4.412;2024-01-15T05:34:42;12.13;;;5.10;;
27796;SDS011;15177;50.844;4.412;2024-01-15T05:37:07;13.07;;;4.53;;
27796;SDS011;15177;50.844;4.412;2024-01-15T05:39:33;12.37;;;4.83;;
27796;SDS011;15177;50.844;4.412;2024-01-15T05:42:02;6.47;;;4.50;;
27796;SDS011;15177;50.844;4.412;2024-01-15T05:44:27;9.27;;;4.57;;
27796;SDS011;15177;50.844;4.412;2024-01-15T05:46:53;8.87;;;3.93;;
27796;SDS011;15177;50.844;4.412;2024-01-15T05:49:21;8.77;;;4.27;;
27796;SDS011;15177;50.844;4.412;2024-01-15T05:51:46;15.30;;;5.20;;
27796;SDS011;15177;50.844;4.412;2024-01-15T05:54:12;11.03;;;4.63;;
27796;SDS011;15177;50.844;4.412;2024-01-15T05:56:38;9.67;;;4.23;;
27796;SDS011;15177;50.844;4.412;2024-01-15T05:59:03;10.20;;;4.23;;
27796;SDS011;15177;50.844;4.412;2024-01-15T06:01:29;9.70;;;3.53;;
27796;SDS011;15177;50.844;4.412;2024-01-15T06:03:55;11.83;;;3.67;;
27796;SDS011;15177;50.844;4.412;2024-01-15T06:06:20;14.67;;;3.67;;
27796;SDS011;15177;50.844;4.412;2024-01-15T06:08:46;8.83;;;3.37;;
27796;SDS011;15177;50.844;4.412;2024-01-15T06:11:12;7.40;;;2.67;;
27796;SDS011;15177;50.844;4.412;2024-01-15T06:13:37;14.13;;;3.17;;
27796;SDS011;15177;50.844;4.412;2024-01-15T06:16:14;4.13;;;2.27;;
27796;SDS011;15177;50.844;4.412;2024-01-15T06:18:44;6.40;;;2.10;;
27796;SDS011;15177;50.844;4.412;2024-01-15T06:21:09;12.93;;;2.50;;
27796;SDS011;15177;50.844;4.412;2024-01-15T06:23:37;5.57;;;1.93;;
27796;SDS011;15177;50.844;4.412;2024-01-15T06:26:03;4.03;;;1.63;;
27796;SDS011;15177;50.844;4.412;2024-01-15T06:28:31;9.00;;;2.50;;
27796;SDS011;15177;50.844;4.412;2024-01-15T06:30:57;7.30;;;2.40;;
27796;SDS011;15177;50.844;4.412;2024-01-15T06:33:25;8.60;;;2.47;;
27796;SDS011;15177;50.844;4.412;2024-01-15T06:35:51;9.23;;;3.00;;
27796;SDS011;15177;50.844;4.412;2024-01-15T06:38:17;6.97;;;2.90;;
27796;SDS011;15177;50.844;4.412;2024-01-15T06:40:42;5.37;;;2.83;;
27796;SDS011;15177;50.844;4.412;2024-01-15T06:43:13;6.27;;;3.10;;
27796;SDS011;15177;50.844;4.412;2024-01-15T06:45:38;7.20;;;3.40;;
27796;SDS011;15177;50.844;4.412;2024-01-15T06:48:04;13.10;;;3.30;;
27796;SDS011;15177;50.844;4.412;2024-01-15T06:50:30;12.50;;;3.60;;
27796;SDS011;15177;50.844;4.412;2024-01-15T06:52:56;6.90;;;3.27;;
27796;SDS011;15177;50.844;4.412;2024-01-15T06:55:24;13.70;;;3.83;;
27796;SDS011;15177;50.844;4.412;2024-01-15T06:57:52;11.70;;;3.80;;
27796;SDS011;15177;50.844;4.412;2024-01-15T07:00:18;6.00;;;3.67;;
27796;SDS011;15177;50.844;4.412;2024-01-15T07:02:44;11.97;;;4.00;;
27796;SDS011;15177;50.844;4.412;2024-01-15T07:05:13;9.27;;;5.37;;
27796;SDS011;15177;50.844;4.412;2024-01-15T07:07:39;10.17;;;4.63;;
27796;SDS011;15177;50.844;4.412;2024-01-15T07:10:05;14.23;;;5.33;;
27796;SDS011;15177;50.844;4.412;2024-01-15T07:12:31;12.57;;;5.07;;
27796;SDS011;15177;50.844;4.412;2024-01-15T07:15:03;13.30;;;5.40;;
27796;SDS011;15177;50.844;4.412;2024-01-15T07:17:33;9.03;;;5.33;;
27796;SDS011;15177;50.844;4.412;2024-01-15T07:20:04;13.27;;;5.47;;
27796;SDS011;15177;50.844;4.412;2024-01-15T07:22:33;8.00;;;5.03;;
27796;SDS011;15177;50.844;4.412;2024-01-15T07:24:58;9.53;;;5.10;;
27796;SDS011;15177;50.844;4.412;2024-01-15T07:27:26;10.30;;;5.27;;
27796;SDS011;15177;50.844;4.412;2024-01-15T07:29:57;14.33;;;5.37;;
27796;SDS011;15177;50.844;4.412;2024-01-15T07:32:23;9.67;;;5.37;;
27796;SDS011;15177;50.844;4.412;2024-01-15T07:34:49;11.10;;;5.40;;
27796;SDS011;15177;50.844;4.412;2024-01-15T07:37:17;10.50;;;5.53;;
27796;SDS011;15177;50.844;4.412;2024-01-15T07:39:42;15.63;;;6.10;;
27796;SDS011;15177;50.844;4.412;2024-01-15T07:42:10;17.60;;;6.70;;
27796;SDS011;15177;50.844;4.412;2024-01-15T07:44:38;11.20;;;6.10;;
27796;SDS011;15177;50.844;4.412;2024-01-15T07:47:04;11.50;;;7.30;;
27796;SDS011;15177;50.844;4.412;2024-01-15T07:49:29;12.90;;;6.87;;
27796;SDS011;15177;50.844;4.412;2024-01-15T07:51:57;21.97;;;8.57;;
27796;SDS011;15177;50.844;4.412;2024-01-15T07:54:25;14.23;;;7.43;;
27796;SDS011;15177;50.844;4.412;2024-01-15T07:59:23;17.93;;;7.80;;
27796;SDS011;15177;50.844;4.412;2024-01-15T08:01:49;16.63;;;7.97;;
27796;SDS011;15177;50.844;4.412;2024-01-15T08:04:15;15.17;;;7.90;;
27796;SDS011;15177;50.844;4.412;2024-01-15T08:06:43;18.47;;;8.40;;
27796;SDS011;15177;50.844;4.412;2024-01-15T08:09:09;17.40;;;7.83;;
27796;SDS011;15177;50.844;4.412;2024-01-15T08:11:35;17.77;;;8.13;;
27796;SDS011;15177;50.844;4.412;2024-01-15T08:14:00;20.27;;;7.77;;
27796;SDS011;15177;50.844;4.412;2024-01-15T08:16:26;15.60;;;7.43;;
27796;SDS011;15177;50.844;4.412;2024-01-15T08:18:52;18.07;;;7.53;;
27796;SDS011;15177;50.844;4.412;2024-01-15T08:21:21;17.53;;;6.70;;
27796;SDS011;15177;50.844;4.412;2024-01-15T08:23:47;19.57;;;7.00;;
27796;SDS011;15177;50.844;4.412;2024-01-15T08:26:13;12.67;;;7.10;;
27796;SDS011;15177;50.844;4.412;2024-01-15T08:28:39;13.57;;;6.30;;
27796;SDS011;15177;50.844;4.412;2024-01-15T08:31:07;12.77;;;5.67;;
27796;SDS011;15177;50.844;4.412;2024-01-15T08:33:33;17.50;;;5.63;;
27796;SDS011;15177;50.844;4.412;2024-01-15T08:35:58;17.20;;;5.33;;
27796;SDS011;15177;50.844;4.412;2024-01-15T08:38:24;12.67;;;4.90;;
27796;SDS011;15177;50.844;4.412;2024-01-15T08:40:52;18.47;;;4.93;;
27796;SDS011;15177;50.844;4.412;2024-01-15T08:43:18;10.90;;;4.50;;
27796;SDS011;15177;50.844;4.412;2024-01-15T08:45:44;8.30;;;4.07;;
27796;SDS011;15177;50.844;4.412;2024-01-15T08:48:16;12.40;;;3.73;;
27796;SDS011;15177;50.844;4.412;2024-01-15T08:50:44;11.77;;;3.80;;
27796;SDS011;15177;50.844;4.412;2024-01-15T08:53:13;11.40;;;3.53;;
27796;SDS011;15177;50.844;4.412;2024-01-15T08:55:39;12.70;;;3.73;;
27796;SDS011;15177;50.844;4.412;2024-01-15T08:58:11;9.80;;;2.83;;
27796;SDS011;15177;50.844;4.412;2024-01-15T09:00:37;12.07;;;2.90;;
27796;SDS011;15177;50.844;4.412;2024-01-15T09:03:02;11.00;;;2.37;;
27796;SDS011;15177;50.844;4.412;2024-01-15T09:05:28;14.23;;;2.90;;
27796;SDS011;15177;50.844;4.412;2024-01-15T09:07:56;11.40;;;3.23;;
27796;SDS011;15177;50.844;4.412;2024-01-15T09:10:22;15.83;;;2.83;;
27796;SDS011;15177;50.844;4.412;2024-01-15T09:12:49;11.33;;;2.63;;
27796;SDS011;15177;50.844;4.412;2024-01-15T09:15:17;12.33;;;2.70;;
27796;SDS011;15177;50.844;4.412;2024-01-15T09:17:43;10.57;;;3.17;;
27796;SDS011;15177;50.844;4.412;2024-01-15T09:20:11;10.93;;;3.13;;
27796;SDS011;15177;50.844;4.412;2024-01-15T09:22:40;15.80;;;3.00;;
27796;SDS011;15177;50.844;4.412;2024-01-15T09:28:16;6.77;;;2.50;;
27796;SDS011;15177;50.844;4.412;2024-01-15T09:30:59;12.90;;;2.17;;
27796;SDS011;15177;50.844;4.412;2024-01-15T09:34:04;14.53;;;2.50;;
27796;SDS011;15177;50.844;4.412;2024-01-15T09:37:18;14.73;;;3.07;;
27796;SDS011;15177;50.844;4.412;2024-01-15T09:40:02;6.73;;;2.37;;
27796;SDS011;15177;50.844;4.412;2024-01-15T09:42:40;11.03;;;2.67;;
27796;SDS011;15177;50.844;4.412;2024-01-15T09:45:12;8.37;;;2.17;;
27796;SDS011;15177;50.844;4.412;2024-01-15T09:47:57;9.20;;;3.07;;
27796;SDS011;15177;50.844;4.412;2024-01-15T09:50:44;6.53;;;2.47;;
27796;SDS011;15177;50.844;4.412;2024-01-15T09:53:25;8.83;;;2.20;;
27796;SDS011;15177;50.844;4.412;2024-01-15T09:55:56;5.43;;;1.90;;
27796;SDS011;15177;50.844;4.412;2024-01-15T09:58:29;11.30;;;2.90;;
27796;SDS011;15177;50.844;4.412;2024-01-15T10:01:01;10.23;;;2.67;;
27796;SDS011;15177;50.844;4.412;2024-01-15T10:03:28;12.87;;;2.33;;
27796;SDS011;15177;50.844;4.412;2024-01-15T10:05:57;11.50;;;2.83;;
27796;SDS011;15177;50.844;4.412;2024-01-15T10:08:24;6.57;;;2.03;;
27796;SDS011;15177;50.844;4.412;2024-01-15T10:10:50;16.27;;;2.77;;
27796;SDS011;15177;50.844;4.412;2024-01-15T10:13:18;13.73;;;2.50;;
27796;SDS011;15177;50.844;4.412;2024-01-15T10:15:48;11.40;;;2.63;;
27796;SDS011;15177;50.844;4.412;2024-01-15T10:18:36;8.17;;;2.37;;
27796;SDS011;15177;50.844;4.412;2024-01-15T10:21:23;14.53;;;2.30;;
27796;SDS011;15177;50.844;4.412;2024-01-15T10:24:03;6.73;;;2.30;;
27796;SDS011;15177;50.844;4.412;2024-01-15T10:27:04;10.27;;;2.80;;
27796;SDS011;15177;50.844;4.412;2024-01-15T10:29:37;8.77;;;2.93;;
27796;SDS011;15177;50.844;4.412;2024-01-15T10:32:06;15.30;;;2.63;;
27796;SDS011;15177;50.844;4.412;2024-01-15T10:34:33;11.87;;;2.30;;
27796;SDS011;15177;50.844;4.412;2024-01-15T10:37:02;7.63;;;2.30;;
27796;SDS011;15177;50.844;4.412;2024-01-15T10:39:28;6.83;;;2.37;;
27796;SDS011;15177;50.844;4.412;2024-01-15T10:41:57;12.10;;;2.87;;
27796;SDS011;15177;50.844;4.412;2024-01-15T10:44:35;8.57;;;2.40;;
27796;SDS011;15177;50.844;4.412;2024-01-15T10:47:00;5.73;;;2.23;;
27796;SDS011;15177;50.844;4.412;2024-01-15T10:49:26;4.23;;;1.67;;
27796;SDS011;15177;50.844;4.412;2024-01-15T10:51:56;5.47;;;2.00;;
27796;SDS011;15177;50.844;4.412;2024-01-15T10:54:22;7.17;;;2.80;;
27796;SDS011;15177;50.844;4.412;2024-01-15T10:56:49;8.70;;;2.30;;
27796;SDS011;15177;50.844;4.412;2024-01-15T10:59:16;12.17;;;2.63;;
27796;SDS011;15177;50.844;4.412;2024-01-15T11:01:45;15.83;;;2.40;;
27796;SDS011;15177;50.844;4.412;2024-01-15T11:04:14;14.83;;;2.77;;
27796;SDS011;15177;50.844;4.412;2024-01-15T11:06:45;12.63;;;2.43;;
27796;SDS011;15177;50.844;4.412;2024-01-15T11:09:14;7.73;;;2.73;;
27796;SDS011;15177;50.844;4.412;2024-01-15T11:11:45;9.10;;;2.37;;
27796;SDS011;15177;50.844;4.412;2024-01-15T11:17:00;8.90;;;2.20;;
27796;SDS011;15177;50.844;4.412;2024-01-15T11:19:27;10.80;;;2.33;;
27796;SDS011;15177;50.844;4.412;2024-01-15T11:22:08;8.00;;;2.00;;
27796;SDS011;15177;50.844;4.412;2024-01-15T11:24:37;14.47;;;2.20;;
27796;SDS011;15177;50.844;4.412;2024-01-15T11:27:07;11.10;;;1.90;;
27796;SDS011;15177;50.844;4.412;2024-01-15T11:29:34;6.93;;;2.00;;
27796;SDS011;15177;50.844;4.412;2024-01-15T11:40:20;10.20;;;2.33;;
27796;SDS011;15177;50.844;4.412;2024-01-15T11:42:47;6.93;;;2.23;;
27796;SDS011;15177;50.844;4.412;2024-01-15T11:45:13;8.83;;;1.93;;
27796;SDS011;15177;50.844;4.412;2024-01-15T11:50:33;10.53;;;2.03;;
27796;SDS011;15177;50.844;4.412;2024-01-15T11:53:00;9.67;;;1.87;;
27796;SDS011;15177;50.844;4.412;2024-01-15T11:58:07;12.13;;;2.10;;
27796;SDS011;15177;50.844;4.412;2024-01-15T12:00:39;9.03;;;1.60;;
27796;SDS011;15177;50.844;4.412;2024-01-15T12:03:06;6.40;;;1.93;;
27796;SDS011;15177;50.844;4.412;2024-01-15T12:05:41;10.40;;;1.80;;
27796;SDS011;15177;50.844;4.412;2024-01-15T12:08:35;10.87;;;2.17;;
27796;SDS011;15177;50.844;4.412;2024-01-15T12:11:13;5.83;;;1.70;;
27796;SDS011;15177;50.844;4.412;2024-01-15T12:14:03;6.30;;;2.13;;
27796;SDS011;15177;50.844;4.412;2024-01-15T12:16:56;12.10;;;2.37;;
27796;SDS011;15177;50.844;4.412;2024-01-15T12:20:09;9.40;;;2.07;;
27796;SDS011;15177;50.844;4.412;2024-01-15T12:23:16;7.20;;;2.53;;
27796;SDS011;15177;50.844;4.412;2024-01-15T12:29:13;11.23;;;1.80;;
27796;SDS011;15177;50.844;4.412;2024-01-15T12:31:55;9.53;;;1.87;;
27796;SDS011;15177;50.844;4.412;2024-01-15T12:34:29;5.60;;;1.70;;
27796;SDS011;15177;50.844;4.412;2024-01-15T12:37:02;11.23;;;2.17;;
27796;SDS011;15177;50.844;4.412;2024-01-15T12:39:51;12.20;;;1.70;;
27796;SDS011;15177;50.844;4.412;2024-01-15T12:42:26;9.77;;;1.90;;
27796;SDS011;15177;50.844;4.412;2024-01-15T12:45:05;8.90;;;2.10;;
27796;SDS011;15177;50.844;4.412;2024-01-15T12:47:56;9.93;;;2.03;;
27796;SDS011;15177;50.844;4.412;2024-01-15T12:50:33;11.93;;;2.07;;
27796;SDS011;15177;50.844;4.412;2024-01-15T12:52:59;14.27;;;2.17;;
27796;SDS011;15177;50.844;4.412;2024-01-15T13:01:24;9.43;;;1.70;;
27796;SDS011;15177;50.844;4.412;2024-01-15T13:03:55;7.97;;;2.37;;
27796;SDS011;15177;50.844;4.412;2024-01-15T13:06:27;9.23;;;2.00;;
27796;SDS011;15177;50.844;4.412;2024-01-15T13:09:11;10.97;;;1.77;;
27796;SDS011;15177;50.844;4.412;2024-01-15T13:11:48;12.97;;;1.97;;
27796;SDS011;15177;50.844;4.412;2024-01-15T13:14:19;9.43;;;2.00;;
27796;SDS011;15177;50.844;4.412;2024-01-15T13:17:03;10.77;;;2.00;;
27796;SDS011;15177;50.844;4.412;2024-01-15T13:19:44;7.27;;;1.57;;
27796;SDS011;15177;50.844;4.412;2024-01-15T13:22:35;7.37;;;1.60;;
27796;SDS011;15177;50.844;4.412;2024-01-15T13:25:05;12.47;;;2.60;;
27796;SDS011;15177;50.844;4.412;2024-01-15T13:27:38;12.37;;;2.03;;
27796;SDS011;15177;50.844;4.412;2024-01-15T13:30:09;9.77;;;1.93;;
27796;SDS011;15177;50.844;4.412;2024-01-15T13:32:38;4.80;;;1.70;;
27796;SDS011;15177;50.844;4.412;2024-01-15T13:35:04;12.00;;;2.13;;
27796;SDS011;15177;50.844;4.412;2024-01-15T13:37:32;10.77;;;2.27;;
27796;SDS011;15177;50.844;4.412;2024-01-15T13:40:00;9.73;;;2.30;;
27796;SDS011;15177;50.844;4.412;2024-01-15T13:42:41;10.47;;;2.63;;
27796;SDS011;15177;50.844;4.412;2024-01-15T13:45:07;9.27;;;2.27;;
27796;SDS011;15177;50.844;4.412;2024-01-15T13:47:38;9.27;;;2.30;;
27796;SDS011;15177;50.844;4.412;2024-01-15T13:50:04;10.93;;;2.00;;
27796;SDS011;15177;50.844;4.412;2024-01-15T13:52:30;10.07;;;2.27;;
27796;SDS011;15177;50.844;4.412;2024-01-15T13:55:06;10.93;;;2.53;;
27796;SDS011;15177;50.844;4.412;2024-01-15T13:57:52;11.87;;;2.23;;
27796;SDS011;15177;50.844;4.412;2024-01-15T14:00:41;10.97;;;2.57;;
27796;SDS011;15177;50.844;4.412;2024-01-15T14:03:17;13.53;;;3.53;;
27796;SDS011;15177;50.844;4.412;2024-01-15T14:05:45;5.83;;;1.37;;
27796;SDS011;15177;50.844;4.412;2024-01-15T14:08:11;3.33;;;1.50;;
27796;SDS011;15177;50.844;4.412;2024-01-15T14:10:39;5.97;;;1.83;;
27796;SDS011;15177;50.844;4.412;2024-01-15T14:13:05;4.90;;;2.17;;
27796;SDS011;15177;50.844;4.412;2024-01-15T14:15:35;5.63;;;2.10;;
27796;SDS011;15177;50.844;4.412;2024-01-15T14:18:04;6.30;;;2.33;;
27796;SDS011;15177;50.844;4.412;2024-01-15T14:20:30;7.77;;;2.43;;
27796;SDS011;15177;50.844;4.412;2024-01-15T14:22:58;7.47;;;2.07;;
27796;SDS011;15177;50.844;4.412;2024-01-15T14:25:39;5.53;;;1.57;;
27796;SDS011;15177;50.844;4.412;2024-01-15T14:28:10;12.00;;;2.50;;
27796;SDS011;15177;50.844;4.412;2024-01-15T14:30:36;14.00;;;2.60;;
27796;SDS011;15177;50.844;4.412;2024-01-15T14:33:02;7.27;;;2.00;;
27796;SDS011;15177;50.844;4.412;2024-01-15T14:35:30;13.30;;;2.23;;
27796;SDS011;15177;50.844;4.412;2024-01-15T14:37:58;7.87;;;2.17;;
27796;SDS011;15177;50.844;4.412;2024-01-15T14:40:25;8.00;;;1.97;;
27796;SDS011;15177;50.844;4.412;2024-01-15T14:42:51;13.23;;;1.77;;
27796;SDS011;15177;50.844;4.412;2024-01-15T14:45:19;3.67;;;1.30;;
27796;SDS011;15177;50.844;4.412;2024-01-15T14:47:44;7.47;;;1.90;;
27796;SDS011;15177;50.844;4.412;2024-01-15T14:50:12;4.13;;;1.43;;
27796;SDS011;15177;50.844;4.412;2024-01-15T14:52:38;3.93;;;1.57;;
27796;SDS011;15177;50.844;4.412;2024-01-15T14:55:07;2.83;;;1.63;;
27796;SDS011;15177;50.844;4.412;2024-01-15T14:57:33;7.73;;;2.27;;
27796;SDS011;15177;50.844;4.412;2024-01-15T14:59:59;10.63;;;2.20;;
27796;SDS011;15177;50.844;4.412;2024-01-15T15:02:27;6.73;;;1.87;;
27796;SDS011;15177;50.844;4.412;2024-01-15T15:04:55;6.23;;;2.33;;
27796;SDS011;15177;50.844;4.412;2024-01-15T15:07:21;11.27;;;2.37;;
27796;SDS011;15177;50.844;4.412;2024-01-15T15:09:47;6.47;;;1.73;;
27796;SDS011;15177;50.844;4.412;2024-01-15T15:12:16;9.57;;;1.73;;
27796;SDS011;15177;50.844;4.412;2024-01-15T15:14:41;6.40;;;2.00;;
27796;SDS011;15177;50.844;4.412;2024-01-15T15:17:10;7.13;;;1.87;;
27796;SDS011;15177;50.844;4.412;2024-01-15T15:19:38;4.70;;;1.73;;